Time;durP1;ratioP1;P1;durP2;ratioP2;P2;SDS_P1;SDS_P2;PMS_P1;PMS_P2;Temp;Humidity;BMP_temperature;BMP_pressure;BME280_temperature;BME280_humidity;BME280_pressure;Samples;Min_cycle;Max_cycle;Signal;HPM_P1;HPM_P2
2021/08/10 00:00:17;;;;;;;10.50;8.30;;;;;;;26.21;51.86;95102.28;6276735;22;20523;-83
2021/08/10 00:02:44;;;;;;;9.77;8.87;;;;;;;26.19;51.76;95101.69;6277197;22;20447;-83
2021/08/10 00:05:11;;;;;;;9.03;8.10;;;;;;;26.23;51.28;95102.88;6277058;22;20487;-83
2021/08/10 00:07:39;;;;;;;11.20;8.83;;;;;;;26.17;51.68;95101.09;6223714;22;20479;-83
2021/08/10 00:10:07;;;;;;;9.20;8.30;;;;;;;26.17;51.88;95093.03;6277094;22;20464;-83
2021/08/10 00:12:34;;;;;;;9.57;8.57;;;;;;;26.18;51.82;95094.66;6276805;22;20443;-83
2021/08/10 00:15:03;;;;;;;8.63;7.93;;;;;;;26.22;51.69;95098.56;6276503;22;20463;-83
2021/08/10 00:17:30;;;;;;;8.30;7.50;;;;;;;26.24;51.51;95096.47;6276802;22;20396;-83
2021/08/10 00:19:57;;;;;;;9.00;8.10;;;;;;;26.27;51.51;95096.00;6277176;22;20535;-83
2021/08/10 00:22:25;;;;;;;11.57;8.80;;;;;;;26.18;51.82;95089.28;6276250;22;20902;-84
2021/08/10 00:24:53;;;;;;;9.03;8.20;;;;;;;26.14;51.63;95088.91;6277299;22;20392;-83
2021/08/10 00:27:20;;;;;;;9.03;7.73;;;;;;;26.12;51.66;95090.19;6251022;22;20484;-84
2021/08/10 00:29:47;;;;;;;9.23;8.33;;;;;;;26.06;52.05;95085.69;6225154;22;20411;-84
2021/08/10 00:32:14;;;;;;;13.53;8.57;;;;;;;26.07;51.80;95090.03;6278089;22;20491;-83
2021/08/10 00:34:41;;;;;;;9.53;8.60;;;;;;;26.04;51.85;95090.47;6278639;22;20466;-83
2021/08/10 00:37:09;;;;;;;8.90;8.10;;;;;;;25.99;52.10;95087.59;6278536;22;20483;-84
2021/08/10 00:39:37;;;;;;;10.10;9.10;;;;;;;25.86;52.34;95094.75;6277957;22;20553;-84
2021/08/10 00:42:06;;;;;;;10.13;9.20;;;;;;;25.85;52.53;95094.97;6278324;22;20791;-84
2021/08/10 00:44:33;;;;;;;9.87;8.87;;;;;;;25.87;52.81;95091.00;6278137;22;20393;-84
2021/08/10 00:47:00;;;;;;;12.17;9.33;;;;;;;25.62;54.34;95098.22;6279012;22;20515;-85
2021/08/10 00:49:27;;;;;;;10.00;8.80;;;;;;;25.55;55.88;95100.94;6224613;22;20482;-82
2021/08/10 00:51:54;;;;;;;9.67;8.67;;;;;;;25.53;55.97;95099.53;6278021;22;21259;-82
2021/08/10 00:54:24;;;;;;;13.10;9.73;;;;;;;25.19;57.81;95095.41;6277817;22;20486;-82
2021/08/10 00:56:53;;;;;;;14.60;9.50;;;;;;;25.29;57.37;95104.63;6278453;22;20486;-82
2021/08/10 00:59:22;;;;;;;10.47;9.40;;;;;;;25.22;58.12;95106.53;6250079;22;20526;-82
2021/08/10 01:01:49;;;;;;;11.57;10.33;;;;;;;25.21;57.82;95107.56;6278354;22;20491;-82
2021/08/10 01:04:16;;;;;;;10.40;8.73;;;;;;;25.26;57.85;95102.38;6278291;22;20911;-82
2021/08/10 01:06:55;;;;;;;12.60;10.73;;;;;;;25.13;58.24;95113.19;6278412;22;20491;-82
2021/08/10 01:09:29;;;;;;;12.20;10.67;;;;;;;25.04;57.37;95106.41;6277776;22;20485;-82
2021/08/10 01:12:02;;;;;;;11.17;9.00;;;;;;;25.00;58.07;95107.88;6176301;22;20423;-82
2021/08/10 01:14:46;;;;;;;10.17;9.10;;;;;;;25.00;57.74;95122.13;6277423;22;20430;-82
2021/08/10 01:17:20;;;;;;;10.23;8.23;;;;;;;25.06;57.57;95122.31;6277799;22;20477;-82
2021/08/10 01:20:12;;;;;;;16.37;9.07;;;;;;;25.08;57.74;95118.38;6277444;22;20940;-82
2021/08/10 01:22:43;;;;;;;10.40;9.30;;;;;;;25.12;57.39;95116.91;6277866;22;20417;-82
2021/08/10 01:25:24;;;;;;;11.70;8.87;;;;;;;25.14;57.04;95119.38;6278214;22;20485;-82
2021/08/10 01:28:07;;;;;;;12.87;8.70;;;;;;;25.16;57.48;95123.50;6277774;22;20481;-82
2021/08/10 01:30:42;;;;;;;12.67;8.77;;;;;;;25.19;56.77;95116.88;6277552;22;20490;-82
2021/08/10 01:33:11;;;;;;;9.23;8.23;;;;;;;25.14;57.50;95114.81;6278005;22;20400;-82
2021/08/10 01:35:38;;;;;;;13.43;9.67;;;;;;;25.09;57.13;95103.91;6224652;22;20413;-82
2021/08/10 01:38:06;;;;;;;10.70;9.60;;;;;;;25.06;56.55;95096.28;6277617;22;20482;-82
2021/08/10 01:40:34;;;;;;;11.07;9.77;;;;;;;25.06;57.10;95104.34;6277673;22;20446;-82
2021/08/10 01:43:04;;;;;;;10.50;9.30;;;;;;;25.06;57.27;95090.91;6277714;22;20404;-83
2021/08/10 01:45:37;;;;;;;11.03;9.90;;;;;;;25.07;57.12;95089.03;6277508;22;20514;-83
2021/08/10 01:48:06;;;;;;;9.77;8.77;;;;;;;25.01;56.62;95082.69;6277369;22;20395;-83
2021/08/10 01:50:35;;;;;;;9.67;8.77;;;;;;;24.97;56.71;95086.81;6277703;22;20485;-83
2021/08/10 01:53:02;;;;;;;9.40;8.60;;;;;;;24.96;57.19;95090.53;6224664;22;20435;-83
2021/08/10 01:55:30;;;;;;;11.40;7.80;;;;;;;24.93;56.72;95085.59;6277619;22;20484;-83
2021/08/10 01:57:58;;;;;;;9.80;8.90;;;;;;;24.89;56.77;95084.38;6277666;22;20410;-82
2021/08/10 02:00:26;;;;;;;10.07;9.07;;;;;;;24.86;57.34;95084.78;6277595;22;20534;-83
2021/08/10 02:02:54;;;;;;;10.73;9.80;;;;;;;24.86;57.30;95079.41;6277329;22;20415;-83
2021/08/10 02:05:22;;;;;;;9.93;8.90;;;;;;;24.87;56.91;95086.44;6277458;22;20444;-82
2021/08/10 02:07:51;;;;;;;9.57;8.60;;;;;;;24.84;57.15;95082.31;6224842;22;20926;-83
2021/08/10 02:10:19;;;;;;;10.70;9.67;;;;;;;24.85;57.10;95089.31;6277810;22;20426;-82
2021/08/10 02:12:46;;;;;;;9.93;8.93;;;;;;;24.85;56.90;95077.75;6277312;22;20402;-82
2021/08/10 02:15:13;;;;;;;10.63;9.53;;;;;;;24.85;57.58;95083.94;6276963;22;20485;-83
2021/08/10 02:17:40;;;;;;;10.10;8.97;;;;;;;24.82;58.49;95089.75;6277472;22;20482;-83
2021/08/10 02:20:11;;;;;;;10.20;9.27;;;;;;;24.75;58.53;95093.50;6277317;22;20959;-83
2021/08/10 02:22:38;;;;;;;12.23;9.43;;;;;;;24.79;58.23;95095.53;6277261;22;20415;-83
2021/08/10 02:25:10;;;;;;;11.53;10.13;;;;;;;24.80;57.48;95099.06;6277300;22;20903;-83
2021/08/10 02:27:41;;;;;;;9.47;8.40;;;;;;;24.83;57.56;95094.06;6277529;22;20427;-83
2021/08/10 02:30:11;;;;;;;11.77;10.37;;;;;;;24.81;57.46;95100.69;6276929;22;20438;-82
2021/08/10 02:32:40;;;;;;;12.13;9.30;;;;;;;24.79;57.31;95100.91;6277063;22;20478;-82
2021/08/10 02:35:09;;;;;;;12.07;9.53;;;;;;;24.67;57.70;95100.75;6278157;22;20483;-83
2021/08/10 02:37:38;;;;;;;10.03;9.03;;;;;;;24.70;57.17;95108.38;6224956;22;20438;-83
2021/08/10 02:40:10;;;;;;;9.70;8.73;;;;;;;24.77;57.17;95111.03;6277327;22;20526;-82
2021/08/10 02:42:38;;;;;;;13.17;8.77;;;;;;;24.82;56.65;95115.75;6224500;22;20481;-83
2021/08/10 02:45:07;;;;;;;11.77;9.50;;;;;;;24.88;56.37;95109.56;6276896;22;20501;-82
2021/08/10 02:47:34;;;;;;;14.80;9.57;;;;;;;24.88;56.78;95114.94;6276975;22;20413;-82
2021/08/10 02:50:01;;;;;;;10.87;9.70;;;;;;;24.86;57.21;95115.13;6276588;22;20490;-82
2021/08/10 02:52:31;;;;;;;16.43;9.43;;;;;;;24.82;56.64;95110.41;6224205;22;20411;-83
2021/08/10 02:54:58;;;;;;;8.63;8.00;;;;;;;24.82;57.23;95118.44;6277124;22;20485;-82
2021/08/10 02:57:32;;;;;;;10.87;9.73;;;;;;;24.77;56.83;95118.25;6276666;22;20894;-82
2021/08/10 03:00:02;;;;;;;11.60;10.00;;;;;;;24.71;57.38;95115.41;6276779;22;20534;-82
2021/08/10 03:02:35;;;;;;;10.13;9.23;;;;;;;24.75;56.96;95117.66;6276656;22;20448;-83
2021/08/10 03:05:07;;;;;;;9.73;8.80;;;;;;;24.77;57.23;95123.63;6277464;22;20460;-82
2021/08/10 03:07:36;;;;;;;10.63;9.50;;;;;;;24.77;56.71;95118.25;6277087;22;20753;-82
2021/08/10 03:10:05;;;;;;;10.53;9.40;;;;;;;24.76;56.89;95127.34;6223904;22;20482;-83
2021/08/10 03:12:38;;;;;;;10.23;9.33;;;;;;;24.70;57.19;95118.31;6276924;22;20437;-82
2021/08/10 03:15:06;;;;;;;12.13;9.43;;;;;;;24.68;57.33;95121.19;6277212;22;20428;-83
2021/08/10 03:17:39;;;;;;;9.73;8.90;;;;;;;24.53;57.54;95123.28;6224379;22;20491;-83
2021/08/10 03:20:08;;;;;;;9.93;9.20;;;;;;;24.53;57.40;95134.03;6276555;22;20823;-83
2021/08/10 03:22:37;;;;;;;10.33;9.47;;;;;;;24.42;57.64;95136.53;6276871;22;20471;-82
2021/08/10 03:25:06;;;;;;;9.73;8.83;;;;;;;24.46;57.81;95138.59;6224507;22;20411;-83
2021/08/10 03:27:36;;;;;;;10.77;9.87;;;;;;;24.49;58.00;95148.91;6276606;22;20466;-82
2021/08/10 03:30:05;;;;;;;11.47;10.47;;;;;;;24.52;57.64;95147.66;6276889;22;20489;-82
2021/08/10 03:32:34;;;;;;;13.13;10.10;;;;;;;24.52;57.67;95150.34;6276733;22;20480;-82
2021/08/10 03:35:02;;;;;;;10.37;9.37;;;;;;;24.56;57.92;95138.13;6276737;22;20401;-84
2021/08/10 03:37:31;;;;;;;11.07;9.93;;;;;;;24.66;58.29;95144.75;6223871;22;20490;-83
2021/08/10 03:39:59;;;;;;;9.90;9.00;;;;;;;24.75;58.03;95148.00;6224452;22;20512;-84
2021/08/10 03:42:26;;;;;;;11.07;9.90;;;;;;;24.74;58.32;95138.31;6276877;22;20398;-83
2021/08/10 03:52:53;;;;;;;11.00;9.80;;;;;;;24.33;67.45;95138.63;6272826;22;21730;-84
2021/08/10 03:55:22;;;;;;;12.57;11.33;;;;;;;24.78;63.08;95141.38;6246735;23;20403;-84
2021/08/10 03:57:50;;;;;;;15.93;10.90;;;;;;;25.25;61.57;95138.34;6245693;23;20393;-84
2021/08/10 04:00:18;;;;;;;13.70;9.33;;;;;;;25.41;56.86;95134.31;6247674;23;20519;-84
2021/08/10 04:02:45;;;;;;;10.43;9.43;;;;;;;25.48;56.99;95143.19;6248087;23;20424;-84
2021/08/10 04:05:16;;;;;;;9.10;8.30;;;;;;;25.44;56.84;95141.94;6249130;23;20438;-84
2021/08/10 04:07:43;;;;;;;11.30;10.10;;;;;;;25.86;55.98;95142.31;6248360;23;20432;-83
2021/08/10 04:10:12;;;;;;;12.03;8.57;;;;;;;26.37;53.70;95136.75;6247660;23;20480;-83
2021/08/10 04:12:43;;;;;;;16.70;9.57;;;;;;;26.86;52.76;95140.34;6248329;23;20476;-84
2021/08/10 04:15:13;;;;;;;10.90;10.00;;;;;;;27.13;51.53;95136.31;6248166;23;20402;-84
2021/08/10 04:21:02;;;;;;;9.27;8.47;;;;;;;27.80;48.71;95138.97;6247623;23;20482;-84
2021/08/10 04:23:29;;;;;;;9.00;8.20;;;;;;;27.95;48.80;95143.91;6247971;23;20821;-84
2021/08/10 04:25:56;;;;;;;10.10;8.50;;;;;;;28.13;49.07;95143.00;6248307;23;20789;-84
2021/08/10 04:28:25;;;;;;;15.20;9.50;;;;;;;27.99;49.58;95145.91;6247404;23;21266;-85
2021/08/10 04:30:52;;;;;;;8.60;7.90;;;;;;;27.70;49.75;95142.22;6247950;23;20436;-85
2021/08/10 04:33:19;;;;;;;15.00;9.77;;;;;;;27.72;52.11;95148.19;6170407;23;20758;-86
2021/08/10 04:35:46;;;;;;;11.33;10.23;;;;;;;27.77;50.13;95140.25;6170299;23;20437;-84
2021/08/10 04:38:12;;;;;;;15.43;9.97;;;;;;;27.87;50.80;95146.97;6247357;23;20477;-85
2021/08/10 04:40:39;;;;;;;11.07;9.90;;;;;;;27.93;49.57;95152.25;6247930;23;20521;-85
2021/08/10 04:43:06;;;;;;;13.97;9.87;;;;;;;27.97;49.25;95149.91;6247116;23;20977;-85
2021/08/10 04:45:35;;;;;;;17.97;10.23;;;;;;;28.02;49.62;95160.81;6247295;23;20472;-85
2021/08/10 04:48:02;;;;;;;11.20;9.03;;;;;;;27.97;49.31;95153.41;6247358;23;20746;-85
2021/08/10 04:50:28;;;;;;;14.77;11.00;;;;;;;28.02;49.82;95155.41;6246726;23;20893;-85
2021/08/10 04:52:55;;;;;;;15.20;10.57;;;;;;;28.15;49.80;95157.91;6246930;22;20428;-85
2021/08/10 04:55:22;;;;;;;12.83;9.83;;;;;;;28.36;49.25;95165.50;6277937;22;20432;-84
2021/08/10 04:57:49;;;;;;;16.53;9.50;;;;;;;28.54;48.02;95175.34;6224431;22;20401;-85
2021/08/10 05:00:17;;;;;;;13.00;9.33;;;;;;;28.36;48.08;95168.19;6277763;22;20420;-85
2021/08/10 05:02:45;;;;;;;11.17;9.90;;;;;;;28.08;49.21;95170.69;6278016;22;20753;-84
2021/08/10 05:05:12;;;;;;;11.57;9.20;;;;;;;28.24;49.78;95180.84;6278360;22;20480;-84
2021/08/10 05:07:39;;;;;;;10.87;9.30;;;;;;;28.36;49.64;95183.56;6278377;22;20424;-85
2021/08/10 05:10:07;;;;;;;11.40;10.33;;;;;;;28.50;48.74;95176.06;6277142;22;20471;-84
2021/08/10 05:12:36;;;;;;;11.10;9.90;;;;;;;28.69;47.78;95183.00;6277455;22;20432;-85
2021/08/10 05:21:48;;;;;;;11.50;8.60;;;;;;;28.74;46.25;95184.97;6276873;22;20482;-85
2021/08/10 05:24:15;;;;;;;9.27;8.20;;;;;;;28.48;45.85;95187.09;6277758;22;20492;-84
2021/08/10 05:26:42;;;;;;;12.37;9.43;;;;;;;28.44;46.03;95190.50;6277327;22;20947;-84
2021/08/10 05:29:09;;;;;;;13.70;10.23;;;;;;;28.69;46.03;95188.38;6276745;22;20496;-84
2021/08/10 05:31:36;;;;;;;17.00;10.17;;;;;;;28.98;45.40;95190.16;6277679;22;20480;-85
2021/08/10 05:34:03;;;;;;;13.33;8.73;;;;;;;29.08;44.98;95186.84;6224037;22;20464;-85
2021/08/10 05:36:30;;;;;;;14.30;10.10;;;;;;;29.21;44.86;95186.59;6224759;22;20483;-85
2021/08/10 05:38:58;;;;;;;10.90;9.67;;;;;;;29.23;44.98;95189.06;6224629;22;20770;-85
2021/08/10 05:41:27;;;;;;;14.30;9.30;;;;;;;29.32;44.35;95184.91;6224426;22;20736;-85
2021/08/10 05:43:54;;;;;;;11.10;9.37;;;;;;;29.54;44.37;95187.81;6277262;22;20421;-85
2021/08/10 05:46:21;;;;;;;12.73;9.30;;;;;;;29.77;44.34;95184.19;6224838;22;20447;-85
2021/08/10 05:48:48;;;;;;;11.90;9.50;;;;;;;29.95;44.67;95175.84;6277301;22;20928;-85
2021/08/10 05:51:14;;;;;;;10.80;9.27;;;;;;;30.27;43.50;95176.16;6277193;22;20467;-85
2021/08/10 05:53:41;;;;;;;9.80;8.80;;;;;;;30.52;43.05;95170.34;6277733;22;20515;-85
2021/08/10 05:56:10;;;;;;;15.70;9.30;;;;;;;30.74;42.43;95163.13;6224899;22;20487;-85
2021/08/10 05:58:37;;;;;;;18.07;9.67;;;;;;;30.79;41.94;95165.91;6277813;22;20940;-85
2021/08/10 06:01:14;;;;;;;17.10;8.77;;;;;;;30.88;42.77;95168.19;6277876;22;20483;-85
2021/08/10 06:03:41;;;;;;;16.43;9.53;;;;;;;31.05;41.90;95171.69;6277617;22;21206;-85
2021/08/10 06:06:27;;;;;;;10.93;10.00;;;;;;;31.33;42.69;95176.13;6276988;22;20429;-85
2021/08/10 06:08:54;;;;;;;10.60;8.90;;;;;;;31.54;42.11;95171.78;6277816;22;20767;-85
2021/08/10 06:11:25;;;;;;;11.67;10.47;;;;;;;31.81;42.16;95178.09;6277566;22;20762;-85
2021/08/10 06:13:52;;;;;;;11.63;8.60;;;;;;;31.95;41.32;95173.88;6277533;22;20415;-85
2021/08/10 06:16:19;;;;;;;10.30;9.33;;;;;;;32.20;40.80;95172.47;6276993;22;20399;-85
2021/08/10 06:18:46;;;;;;;10.73;8.67;;;;;;;32.43;40.12;95179.50;6277738;22;20464;-85
2021/08/10 06:21:13;;;;;;;10.30;8.73;;;;;;;32.53;38.97;95185.00;6224062;22;20835;-85
2021/08/10 06:23:40;;;;;;;19.10;9.37;;;;;;;32.59;38.97;95182.06;6276973;22;20476;-85
2021/08/10 06:26:07;;;;;;;11.57;10.40;;;;;;;32.66;39.19;95188.06;6277257;22;20393;-84
2021/08/10 06:28:35;;;;;;;11.30;9.60;;;;;;;32.85;38.46;95183.09;6277401;22;20459;-85
2021/08/10 06:31:05;;;;;;;10.47;8.30;;;;;;;32.90;37.46;95179.56;6224635;22;20885;-85
2021/08/10 06:33:33;;;;;;;11.23;9.00;;;;;;;32.98;37.64;95179.09;6276409;22;20425;-85
2021/08/10 06:36:00;;;;;;;10.73;9.13;;;;;;;32.92;37.59;95177.41;6276903;22;20434;-85
2021/08/10 06:38:27;;;;;;;9.87;8.87;;;;;;;32.87;38.18;95185.53;6277231;22;20404;-85
2021/08/10 06:40:54;;;;;;;16.77;9.60;;;;;;;32.95;37.85;95182.31;6223997;22;20443;-85
2021/08/10 06:43:21;;;;;;;9.73;8.77;;;;;;;33.06;37.37;95175.88;6277073;22;20403;-85
2021/08/10 06:45:49;;;;;;;10.67;9.50;;;;;;;33.27;37.62;95174.09;6277717;22;20727;-85
2021/08/10 06:48:16;;;;;;;10.00;8.17;;;;;;;33.45;37.24;95175.53;6277054;22;20436;-85
2021/08/10 06:50:43;;;;;;;11.60;8.80;;;;;;;33.65;36.96;95174.78;6276081;22;20483;-85
2021/08/10 06:53:11;;;;;;;14.07;8.73;;;;;;;33.70;36.98;95172.91;6276684;22;20766;-85
2021/08/10 06:55:38;;;;;;;16.37;8.80;;;;;;;33.40;37.82;95173.63;6276596;22;20431;-85
2021/08/10 06:58:05;;;;;;;10.03;8.80;;;;;;;33.41;37.62;95169.00;6276882;22;20749;-85
2021/08/10 07:00:31;;;;;;;9.33;8.50;;;;;;;33.33;38.13;95172.22;6276962;22;20516;-85
2021/08/10 07:03:00;;;;;;;10.43;8.93;;;;;;;33.50;37.66;95167.38;6276854;22;20416;-85
2021/08/10 07:08:57;;;;;;;11.93;8.80;;;;;;;33.91;36.80;95159.38;6275653;22;20410;-85
2021/08/10 07:11:24;;;;;;;12.00;9.33;;;;;;;34.02;36.84;95155.56;6276535;22;20397;-85
2021/08/10 07:13:51;;;;;;;12.30;8.73;;;;;;;34.22;36.95;95169.22;6276621;22;20472;-85
2021/08/10 07:16:18;;;;;;;8.67;7.87;;;;;;;34.41;36.13;95162.19;6275892;22;20805;-85
2021/08/10 07:18:46;;;;;;;12.90;9.10;;;;;;;34.67;35.33;95170.31;6223845;22;20967;-84
2021/08/10 07:21:13;;;;;;;14.23;7.83;;;;;;;34.91;34.48;95168.69;6276361;22;20424;-85
2021/08/10 07:23:40;;;;;;;11.27;8.67;;;;;;;35.05;34.65;95161.56;6274614;22;20939;-85
2021/08/10 07:26:07;;;;;;;10.43;9.30;;;;;;;35.15;35.63;95154.44;6275336;22;20479;-85
2021/08/10 07:28:34;;;;;;;10.83;8.80;;;;;;;35.01;34.32;95155.03;6276365;22;20425;-85
2021/08/10 07:31:01;;;;;;;11.10;8.93;;;;;;;34.75;34.11;95156.16;6223408;22;20439;-85
2021/08/10 07:33:28;;;;;;;9.77;8.40;;;;;;;34.92;35.41;95150.41;6276469;22;20467;-85
2021/08/10 07:35:58;;;;;;;10.03;8.17;;;;;;;34.96;34.41;95152.28;6278212;22;20419;-85
2021/08/10 07:38:25;;;;;;;11.10;8.77;;;;;;;35.12;34.18;95149.53;6278483;22;20492;-85
2021/08/10 07:40:51;;;;;;;14.27;9.30;;;;;;;35.16;33.95;95139.69;6278094;22;21014;-85
2021/08/10 07:43:18;;;;;;;10.87;9.10;;;;;;;35.26;33.01;95145.94;6225203;22;20483;-85
2021/08/10 07:45:45;;;;;;;11.63;9.30;;;;;;;35.36;33.42;95150.59;6279051;22;20428;-85
2021/08/10 07:48:12;;;;;;;9.90;8.93;;;;;;;35.31;34.04;95147.84;6278543;22;20783;-85
2021/08/10 07:50:40;;;;;;;9.23;8.30;;;;;;;35.05;34.48;95147.94;6278864;22;20931;-85
2021/08/10 07:53:08;;;;;;;9.90;8.90;;;;;;;34.80;34.63;95142.50;6278329;22;20408;-85
2021/08/10 07:55:36;;;;;;;15.60;9.40;;;;;;;34.62;34.77;95145.78;6226197;22;20483;-84
2021/08/10 07:58:03;;;;;;;9.70;8.87;;;;;;;34.25;35.76;95149.59;6278782;22;20885;-82
2021/08/10 08:00:30;;;;;;;10.77;8.97;;;;;;;34.27;34.92;95147.41;6278346;22;20432;-82
2021/08/10 08:02:57;;;;;;;11.23;8.83;;;;;;;33.91;35.41;95140.31;6250729;22;20500;-80
2021/08/10 08:05:24;;;;;;;9.87;9.00;;;;;;;33.95;36.11;95138.69;6276221;22;20479;-80
2021/08/10 08:07:51;;;;;;;13.03;8.63;;;;;;;34.15;36.30;95149.59;6277736;22;20483;-79
2021/08/10 08:10:19;;;;;;;10.73;7.93;;;;;;;34.30;35.42;95141.41;6223576;22;20475;-80
2021/08/10 08:12:46;;;;;;;10.87;9.73;;;;;;;34.58;35.15;95134.63;6277506;22;20494;-79
2021/08/10 08:15:13;;;;;;;13.63;10.37;;;;;;;34.67;33.89;95137.59;6278336;22;20439;-80
2021/08/10 08:17:40;;;;;;;11.23;8.07;;;;;;;34.38;33.30;95138.16;6278432;22;20436;-78
2021/08/10 08:20:08;;;;;;;9.33;8.40;;;;;;;34.26;35.65;95137.59;6278085;22;20918;-78
2021/08/10 08:22:35;;;;;;;9.77;8.93;;;;;;;34.12;34.87;95139.25;6277769;22;20446;-80
2021/08/10 08:25:02;;;;;;;11.00;8.70;;;;;;;33.93;34.68;95133.50;6277994;22;20442;-80
2021/08/10 08:27:33;;;;;;;10.73;8.40;;;;;;;33.85;34.03;95136.78;6277576;22;20400;-79
2021/08/10 08:30:01;;;;;;;15.53;9.27;;;;;;;33.90;33.75;95127.78;6223598;22;20484;-80
2021/08/10 08:32:28;;;;;;;9.50;8.53;;;;;;;34.15;35.06;95125.09;6277254;22;20392;-80
2021/08/10 08:34:55;;;;;;;9.63;8.67;;;;;;;34.03;33.76;95128.06;6277444;22;20479;-80
2021/08/10 08:37:21;;;;;;;9.57;8.53;;;;;;;34.01;33.00;95129.41;6276821;22;20444;-80
2021/08/10 08:39:48;;;;;;;9.30;8.50;;;;;;;34.13;32.99;95127.28;6223689;22;20472;-80
2021/08/10 08:42:15;;;;;;;9.70;7.93;;;;;;;34.13;32.65;95116.38;6276737;22;20560;-80
2021/08/10 08:44:44;;;;;;;9.13;8.27;;;;;;;34.00;31.62;95120.44;6276426;22;20475;-80
2021/08/10 08:47:11;;;;;;;12.20;8.83;;;;;;;34.22;32.27;95120.19;6276911;22;20485;-79
2021/08/10 08:49:39;;;;;;;9.23;8.40;;;;;;;34.50;31.86;95120.75;6223999;22;20479;-80
2021/08/10 08:52:11;;;;;;;10.50;8.50;;;;;;;34.43;31.60;95113.66;6277275;22;20403;-80
2021/08/10 08:54:40;;;;;;;11.03;9.03;;;;;;;34.74;31.35;95108.16;6277021;22;21011;-80
2021/08/10 08:57:07;;;;;;;13.63;9.33;;;;;;;34.98;31.77;95106.47;6277207;22;20401;-79
2021/08/10 08:59:34;;;;;;;11.53;9.27;;;;;;;35.27;31.46;95108.53;6276643;22;20476;-79
2021/08/10 09:02:03;;;;;;;14.17;9.33;;;;;;;35.50;31.43;95096.19;6276979;22;21223;-80
2021/08/10 09:04:30;;;;;;;17.90;9.60;;;;;;;35.17;30.73;95094.94;6223622;22;21011;-80
2021/08/10 09:06:57;;;;;;;14.07;8.20;;;;;;;35.29;30.01;95095.47;6276658;22;20475;-79
2021/08/10 09:09:26;;;;;;;8.17;7.43;;;;;;;35.37;29.87;95098.44;6277255;22;20401;-79
2021/08/10 09:11:55;;;;;;;12.00;8.30;;;;;;;35.51;30.20;95097.81;6276447;22;20404;-80
2021/08/10 09:14:23;;;;;;;10.60;8.63;;;;;;;35.52;30.25;95092.06;6276517;22;20480;-80
2021/08/10 09:17:06;;;;;;;18.00;8.50;;;;;;;35.61;30.32;95090.41;6276904;22;20397;-79
2021/08/10 09:19:45;;;;;;;10.47;7.90;;;;;;;35.74;30.90;95094.41;6276522;22;20396;-80
2021/08/10 09:22:17;;;;;;;9.90;8.70;;;;;;;35.52;29.25;95088.53;6276310;22;21007;-80
2021/08/10 09:24:46;;;;;;;9.50;7.30;;;;;;;35.74;29.21;95074.47;6276680;22;20400;-79
2021/08/10 09:27:27;;;;;;;12.90;7.90;;;;;;;35.86;29.14;95072.25;6276411;22;20487;-80
2021/08/10 09:29:54;;;;;;;8.83;7.43;;;;;;;35.81;29.53;95072.22;6276791;22;20476;-79
2021/08/10 09:32:23;;;;;;;8.13;7.37;;;;;;;35.62;29.56;95072.09;6276410;22;20488;-80
2021/08/10 09:35:13;;;;;;;10.00;6.77;;;;;;;35.49;29.58;95064.53;6276379;22;20484;-79
2021/08/10 09:37:40;;;;;;;6.40;5.80;;;;;;;35.49;27.75;95065.34;6277039;22;20412;-80
2021/08/10 09:40:28;;;;;;;8.43;7.63;;;;;;;35.45;28.92;95061.53;6276421;22;20414;-79
2021/08/10 09:42:55;;;;;;;8.80;7.90;;;;;;;35.13;29.92;95058.41;6276101;22;20440;-79
2021/08/10 09:45:22;;;;;;;10.10;7.83;;;;;;;34.95;30.17;95057.94;6223273;22;20436;-79
2021/08/10 09:47:50;;;;;;;14.70;8.80;;;;;;;34.81;30.46;95056.88;6223296;22;20503;-79
2021/08/10 09:50:19;;;;;;;12.60;8.10;;;;;;;34.80;29.87;95044.34;6223530;22;20411;-78
2021/08/10 09:52:46;;;;;;;11.63;7.93;;;;;;;34.88;30.67;95045.69;6277420;22;20409;-79
2021/08/10 09:55:15;;;;;;;13.50;7.80;;;;;;;34.63;29.71;95043.81;6277750;22;20436;-79
2021/08/10 09:57:44;;;;;;;10.93;7.40;;;;;;;34.63;30.37;95043.81;6277215;22;20476;-79
2021/08/10 10:00:12;;;;;;;10.97;7.70;;;;;;;34.70;31.01;95044.38;6224806;22;20925;-79
2021/08/10 10:02:39;;;;;;;9.37;7.33;;;;;;;34.82;31.12;95036.69;6277123;22;20531;-79
2021/08/10 10:05:08;;;;;;;34.87;9.53;;;;;;;34.78;29.38;95041.06;6223576;22;20487;-79
2021/08/10 10:07:35;;;;;;;14.80;8.33;;;;;;;34.77;29.74;95042.16;6277030;22;20483;-79
2021/08/10 10:10:04;;;;;;;9.57;7.90;;;;;;;34.68;29.55;95035.63;6276769;22;20487;-79
2021/08/10 10:12:32;;;;;;;10.73;7.30;;;;;;;34.71;30.29;95032.38;6223384;22;20947;-79
2021/08/10 10:15:00;;;;;;;9.70;8.80;;;;;;;34.82;29.41;95031.22;6276928;22;20410;-79
2021/08/10 10:17:31;;;;;;;8.83;7.80;;;;;;;34.95;29.34;95029.84;6276905;22;20487;-79
2021/08/10 10:19:59;;;;;;;10.27;7.90;;;;;;;35.07;29.94;95022.97;6276777;22;20401;-79
2021/08/10 10:22:32;;;;;;;8.97;7.63;;;;;;;35.19;29.67;95025.34;6276933;22;20440;-79
2021/08/10 10:25:02;;;;;;;10.63;7.60;;;;;;;35.31;29.93;95016.84;6276672;22;20393;-79
2021/08/10 10:27:29;;;;;;;8.70;7.77;;;;;;;35.22;29.86;95013.06;6223707;22;20404;-79
2021/08/10 10:29:57;;;;;;;9.53;7.60;;;;;;;35.14;30.33;95016.38;6276577;22;20869;-79
2021/08/10 10:32:26;;;;;;;10.10;8.00;;;;;;;35.21;29.51;95019.63;6276831;22;20436;-79
2021/08/10 10:34:53;;;;;;;9.93;8.13;;;;;;;35.06;29.21;95009.63;6277021;22;20507;-79
2021/08/10 10:37:21;;;;;;;8.17;7.30;;;;;;;35.07;29.62;95012.06;6276784;22;20547;-79
2021/08/10 10:39:52;;;;;;;8.30;7.60;;;;;;;34.97;29.07;95016.72;6277102;22;20782;-79
2021/08/10 10:42:20;;;;;;;8.60;7.60;;;;;;;34.96;28.96;95001.47;6276641;22;20526;-79
2021/08/10 10:44:51;;;;;;;10.20;8.40;;;;;;;35.08;29.91;95001.97;6277103;22;20755;-79
2021/08/10 10:47:38;;;;;;;8.43;7.70;;;;;;;35.11;28.75;95006.03;6276918;22;20405;-78
2021/08/10 10:50:15;;;;;;;10.17;7.77;;;;;;;35.08;27.91;95004.69;6276684;22;20727;-79
2021/08/10 10:53:00;;;;;;;7.97;6.70;;;;;;;35.08;28.19;95008.25;6277081;22;20500;-79
2021/08/10 10:55:34;;;;;;;9.30;6.60;;;;;;;35.20;27.82;94998.88;6277045;22;20702;-79
2021/08/10 10:58:01;;;;;;;7.57;6.80;;;;;;;35.29;27.58;94999.94;6277334;22;20400;-79
2021/08/10 11:00:30;;;;;;;8.17;7.37;;;;;;;35.23;27.77;94999.13;6276517;22;20483;-78
2021/08/10 11:03:18;;;;;;;11.17;7.13;;;;;;;35.25;27.53;94993.41;6276511;22;20527;-79
2021/08/10 11:05:45;;;;;;;9.90;7.53;;;;;;;35.20;27.91;94991.50;6157885;23;20601;-79
2021/08/10 11:08:37;;;;;;;8.97;8.10;;;;;;;35.17;27.41;94989.34;6182338;23;20787;-79
2021/08/10 11:11:05;;;;;;;10.63;7.87;;;;;;;35.30;29.09;94983.28;6183320;23;21011;-79
2021/08/10 11:13:40;;;;;;;8.33;7.63;;;;;;;35.36;27.92;94984.09;6183256;23;20431;-79
2021/08/10 11:16:09;;;;;;;8.60;7.37;;;;;;;35.28;28.36;94976.47;6182948;23;20430;-79
2021/08/10 11:18:37;;;;;;;8.33;7.37;;;;;;;35.29;28.39;94978.13;6158058;23;20434;-79
2021/08/10 11:21:26;;;;;;;11.70;8.03;;;;;;;35.16;28.57;94979.53;6182718;23;20430;-79
2021/08/10 11:23:54;;;;;;;18.07;8.30;;;;;;;35.30;28.16;94983.28;6183193;23;20446;-79
2021/08/10 11:26:42;;;;;;;8.17;7.43;;;;;;;35.37;28.26;94978.34;6182838;23;20482;-79
2021/08/10 11:29:12;;;;;;;8.93;8.13;;;;;;;35.41;28.22;94975.03;6182768;23;20426;-79
2021/08/10 11:31:53;;;;;;;11.50;7.57;;;;;;;35.48;27.72;94972.81;6182886;23;20510;-79
2021/08/10 11:34:32;;;;;;;9.10;7.70;;;;;;;35.58;28.58;94979.03;6182706;23;20724;-79
2021/08/10 11:37:36;;;;;;;9.50;8.20;;;;;;;35.63;28.36;94970.78;6182841;23;20493;-79
2021/08/10 11:40:12;;;;;;;10.53;9.07;;;;;;;35.61;27.17;94970.25;6182965;23;20515;-80
2021/08/10 11:42:43;;;;;;;9.00;8.00;;;;;;;35.61;26.65;94964.81;6236378;22;20439;-79
2021/08/10 11:45:10;;;;;;;8.90;7.50;;;;;;;35.45;27.50;94962.47;6284532;22;20424;-79
2021/08/10 11:47:37;;;;;;;7.87;7.07;;;;;;;35.32;28.32;94961.16;6276264;22;20476;-79
2021/08/10 11:50:05;;;;;;;8.60;6.67;;;;;;;35.31;28.12;94946.72;6276598;22;20475;-78
2021/08/10 11:52:48;;;;;;;14.60;7.57;;;;;;;35.27;28.20;94953.00;6276607;22;20479;-78
2021/08/10 11:55:16;;;;;;;9.80;6.80;;;;;;;35.24;28.61;94948.09;6276858;22;20499;-78
2021/08/10 11:57:59;;;;;;;8.83;7.40;;;;;;;35.09;28.41;94949.03;6276457;22;20416;-79